createdAt,value
2022-08-17T00:00:43.901Z,98424.16
2022-08-17T00:03:13.573Z,98424.16
2022-08-17T00:05:44.169Z,98423.16
2022-08-17T00:08:12.410Z,98421.78
2022-08-17T00:10:44.103Z,98418.41
2022-08-17T00:13:14.230Z,98420.41
2022-08-17T00:15:41.968Z,98411.34
2022-08-17T00:19:01.662Z,98413.50
2022-08-17T00:20:59.545Z,98415.66
2022-08-17T00:23:28.645Z,98416.50
2022-08-17T00:25:56.375Z,98427.56
2022-08-17T00:28:23.946Z,98424.97
2022-08-17T00:30:53.551Z,98421.66
2022-08-17T00:33:25.950Z,98420.28
2022-08-17T00:35:54.185Z,98425.75
2022-08-17T00:38:22.855Z,98428.34
2022-08-17T00:40:55.968Z,98416.63
2022-08-17T00:43:31.775Z,98422.91
2022-08-17T00:46:00.283Z,98408.44
2022-08-17T00:48:30.889Z,98408.81
2022-08-17T00:51:03.241Z,98410.25
2022-08-17T00:53:32.796Z,98412.94
2022-08-17T00:56:02.045Z,98402.22
2022-08-17T00:58:35.800Z,98400.84
2022-08-17T01:01:05.742Z,98411.56
2022-08-17T01:03:36.265Z,98407.47
2022-08-17T01:06:04.664Z,98405.78
2022-08-17T01:08:33.311Z,98401.16
2022-08-17T01:11:03.095Z,98402.13
2022-08-17T01:13:40.411Z,98401.44
2022-08-17T01:16:16.862Z,98402.84
2022-08-17T01:18:48.325Z,98403.56
2022-08-17T01:21:20.029Z,98396.16
2022-08-17T01:23:49.079Z,98396.75
2022-08-17T01:26:17.009Z,98404.63
2022-08-17T01:28:53.792Z,98401.34
2022-08-17T01:31:24.968Z,98398.44
2022-08-17T01:33:52.737Z,98397.09
2022-08-17T01:36:20.950Z,98399.53
2022-08-17T01:38:50.536Z,98412.88
2022-08-17T01:41:19.575Z,98406.53
2022-08-17T01:43:50.515Z,98412.28
2022-08-17T01:46:23.300Z,98403.66
2022-08-17T01:48:51.527Z,98409.59
2022-08-17T01:51:19.958Z,98404.22
2022-08-17T01:53:51.957Z,98410.69
2022-08-17T01:56:22.865Z,98417.06
2022-08-17T01:58:51.021Z,98418.81
2022-08-17T02:01:20.696Z,98413.63
2022-08-17T02:03:59.153Z,98409.91
2022-08-17T02:06:29.015Z,98413.00
2022-08-17T02:09:03.271Z,98403.16
2022-08-17T02:11:32.829Z,98406.94
2022-08-17T02:14:02.747Z,98406.81
2022-08-17T02:16:37.063Z,98407.22
2022-08-17T02:19:08.258Z,98405.38
2022-08-17T02:21:36.793Z,98397.16
2022-08-17T02:24:06.509Z,98398.31
2022-08-17T02:26:34.386Z,98400.88
2022-08-17T02:29:02.337Z,98406.66
2022-08-17T02:31:31.094Z,98408.75
2022-08-17T02:34:04.072Z,98408.03
2022-08-17T02:36:33.980Z,98409.03
2022-08-17T02:39:02.389Z,98410.72
2022-08-17T02:41:31.701Z,98413.09
2022-08-17T02:43:59.756Z,98405.50
2022-08-17T02:46:28.386Z,98408.72
2022-08-17T02:48:56.397Z,98403.16
2022-08-17T02:51:24.346Z,98411.19
2022-08-17T02:53:52.621Z,98420.59
2022-08-17T02:56:41.864Z,98419.34
2022-08-17T02:59:09.818Z,98427.84
2022-08-17T03:01:37.847Z,98419.03
2022-08-17T03:04:05.964Z,98422.78
2022-08-17T03:06:33.968Z,98425.22
2022-08-17T03:09:01.873Z,98422.25
2022-08-17T03:11:29.867Z,98419.44
2022-08-17T03:13:59.259Z,98422.81
2022-08-17T03:16:27.235Z,98420.41
2022-08-17T03:18:55.368Z,98416.06
2022-08-17T03:21:23.308Z,98407.75
2022-08-17T03:23:54.514Z,98412.41
2022-08-17T03:26:22.685Z,98411.00
2022-08-17T03:28:50.395Z,98410.41
2022-08-17T03:31:20.637Z,98402.97
2022-08-17T03:33:48.408Z,98401.25
2022-08-17T03:36:16.119Z,98400.09
2022-08-17T03:38:43.858Z,98406.13
2022-08-17T03:41:13.720Z,98407.53
2022-08-17T03:43:41.370Z,98409.94
2022-08-17T03:46:34.778Z,98406.81
2022-08-17T03:49:22.739Z,98409.06
2022-08-17T03:52:08.105Z,98402.59
2022-08-17T03:54:53.434Z,98407.25
2022-08-17T03:57:21.292Z,98401.34
2022-08-17T03:59:49.430Z,98390.94
2022-08-17T04:02:19.251Z,98394.16
2022-08-17T04:04:50.701Z,98395.59
2022-08-17T04:07:18.861Z,98393.22
2022-08-17T04:09:46.439Z,98402.50
2022-08-17T04:12:16.229Z,98405.03
2022-08-17T04:14:53.619Z,98405.84
2022-08-17T04:17:24.312Z,98408.69
2022-08-17T04:19:53.930Z,98411.34
2022-08-17T04:22:32.137Z,98419.25
2022-08-17T04:25:04.700Z,98423.91
2022-08-17T04:27:32.337Z,98422.34
2022-08-17T04:30:00.136Z,98423.34
2022-08-17T04:32:59.307Z,98426.31
2022-08-17T04:35:20.863Z,98425.75
2022-08-17T04:37:48.570Z,98426.00
2022-08-17T04:40:34.161Z,98423.50
2022-08-17T04:43:03.351Z,98422.06
2022-08-17T04:45:32.125Z,98426.84
2022-08-17T04:48:00.699Z,98429.25
2022-08-17T04:50:29.720Z,98434.59
2022-08-17T04:52:57.657Z,98455.81
2022-08-17T04:55:25.504Z,98460.44
2022-08-17T04:57:53.200Z,98454.44
2022-08-17T05:00:21.098Z,98459.66
2022-08-17T05:02:51.170Z,98474.75
2022-08-17T05:05:20.089Z,98481.22
2022-08-17T05:07:52.350Z,98481.66
2022-08-17T05:10:20.147Z,98485.19
2022-08-17T05:12:48.854Z,98479.41
2022-08-17T05:15:16.705Z,98475.63
2022-08-17T05:17:44.873Z,98457.16
2022-08-17T05:20:12.702Z,98450.41
2022-08-17T05:22:51.101Z,98447.16
2022-08-17T05:25:24.962Z,98444.47
2022-08-17T05:27:54.244Z,98448.56
2022-08-17T05:30:22.172Z,98447.28
2022-08-17T05:32:57.146Z,98433.75
2022-08-17T05:35:25.423Z,98439.28
2022-08-17T05:37:54.589Z,98440.94
2022-08-17T05:40:25.864Z,98444.44
2022-08-17T05:42:54.185Z,98441.47
2022-08-17T05:45:46.052Z,98427.66
2022-08-17T05:48:10.322Z,98425.81
2022-08-17T05:50:50.427Z,98425.53
2022-08-17T05:53:23.985Z,98429.31
2022-08-17T05:55:57.863Z,98428.53
2022-08-17T05:58:32.927Z,98430.22
2022-08-17T06:01:05.068Z,98430.91
2022-08-17T06:03:41.478Z,98427.13
2022-08-17T06:06:16.942Z,98439.03
2022-08-17T06:08:51.727Z,98445.19
2022-08-17T06:11:25.022Z,98447.13
2022-08-17T06:14:05.335Z,98450.84
2022-08-17T06:16:37.220Z,98457.34
2022-08-17T06:19:07.527Z,98452.56
2022-08-17T06:21:38.799Z,98452.88
2022-08-17T06:24:24.762Z,98447.22
2022-08-17T06:26:53.556Z,98447.81
2022-08-17T06:29:43.996Z,98442.50
2022-08-17T06:32:12.874Z,98450.44
2022-08-17T06:34:41.327Z,98444.97
2022-08-17T06:37:21.202Z,98439.53
2022-08-17T06:39:57.276Z,98437.69
2022-08-17T06:43:02.780Z,98433.81
2022-08-17T06:45:25.018Z,98430.75
2022-08-17T06:47:57.552Z,98434.00
2022-08-17T06:50:31.925Z,98434.41
2022-08-17T06:53:02.460Z,98429.44
2022-08-17T06:55:38.074Z,98432.81
2022-08-17T06:58:11.984Z,98443.19
2022-08-17T07:00:47.043Z,98449.41
2022-08-17T07:03:18.914Z,98443.34
2022-08-17T07:05:49.602Z,98438.03
2022-08-17T07:08:22.107Z,98438.97
2022-08-17T07:10:57.748Z,98450.38
2022-08-17T07:13:33.994Z,98468.09
2022-08-17T07:16:09.317Z,98466.56
2022-08-17T07:18:37.572Z,98462.16
2022-08-17T07:21:17.487Z,98467.25
2022-08-17T07:23:57.234Z,98468.81
2022-08-17T07:26:26.230Z,98475.56
2022-08-17T07:28:56.137Z,98474.16
2022-08-17T07:31:25.311Z,98482.97
2022-08-17T07:34:02.910Z,98469.16
2022-08-17T07:36:33.739Z,98458.63
2022-08-17T07:39:03.045Z,98450.88
2022-08-17T07:41:53.439Z,98442.16
2022-08-17T07:44:23.907Z,98448.41
2022-08-17T07:47:09.904Z,98454.03
2022-08-17T07:49:39.567Z,98463.31
2022-08-17T07:52:48.062Z,98478.97
2022-08-17T07:54:57.216Z,98518.66
2022-08-17T07:57:33.403Z,98520.84
2022-08-17T08:00:26.636Z,98533.38
2022-08-17T08:03:04.457Z,98545.31
2022-08-17T08:05:50.528Z,98541.91
2022-08-17T08:08:38.374Z,98538.47
2022-08-17T08:11:09.937Z,98541.00
2022-08-17T08:13:45.029Z,98536.03
2022-08-17T08:16:25.924Z,98528.50
2022-08-17T08:18:57.505Z,98538.38
2022-08-17T08:21:39.260Z,98532.72
2022-08-17T08:24:17.817Z,98532.13
2022-08-17T08:26:48.840Z,98529.28
2022-08-17T08:29:28.249Z,98521.47
2022-08-17T08:32:03.467Z,98520.69
2022-08-17T08:34:46.324Z,98525.09
2022-08-17T08:37:35.711Z,98515.47
2022-08-17T08:40:11.014Z,98512.59
2022-08-17T08:42:45.141Z,98524.00
2022-08-17T08:45:17.365Z,98522.63
2022-08-17T08:48:05.072Z,98517.13
2022-08-17T08:50:40.331Z,98524.69
2022-08-17T08:53:18.804Z,98519.16
2022-08-17T08:55:53.546Z,98512.06
2022-08-17T08:58:31.632Z,98510.00
2022-08-17T09:01:17.634Z,98508.38
2022-08-17T09:04:25.121Z,98517.72
2022-08-17T09:07:00.596Z,98538.72
2022-08-17T09:09:37.040Z,98558.50
2022-08-17T09:12:09.687Z,98572.75
2022-08-17T09:14:46.694Z,98565.47
2022-08-17T09:17:19.164Z,98560.63
2022-08-17T09:19:50.189Z,98561.59
2022-08-17T09:22:26.587Z,98566.94
2022-08-17T09:25:00.883Z,98560.31
2022-08-17T09:27:32.309Z,98568.63
2022-08-17T09:30:07.842Z,98570.91
2022-08-17T09:32:40.567Z,98574.16
2022-08-17T09:35:19.977Z,98570.00
2022-08-17T09:37:54.626Z,98576.13
2022-08-17T09:40:25.975Z,98560.81
2022-08-17T09:42:57.443Z,98570.44
2022-08-17T09:45:33.144Z,98557.81
2022-08-17T09:48:07.556Z,98553.25
2022-08-17T09:51:03.266Z,98554.78
2022-08-17T09:53:31.759Z,98564.34
2022-08-17T09:56:08.044Z,98573.28
2022-08-17T09:58:45.658Z,98566.03
2022-08-17T10:01:21.013Z,98556.13
2022-08-17T10:04:20.519Z,98541.47
2022-08-17T10:06:52.833Z,98544.00
2022-08-17T10:09:37.761Z,98553.59
2022-08-17T10:12:21.326Z,98549.22
2022-08-17T10:14:58.283Z,98559.34
2022-08-17T10:17:40.674Z,98552.75
2022-08-17T10:20:12.934Z,98543.16
2022-08-17T10:23:02.072Z,98533.72
2022-08-17T10:25:54.689Z,98526.66
2022-08-17T10:28:29.415Z,98529.53
2022-08-17T10:31:23.210Z,98524.78
2022-08-17T10:33:53.819Z,98528.00
2022-08-17T10:36:27.445Z,98537.09
2022-08-17T10:39:04.989Z,98533.06
2022-08-17T10:41:40.435Z,98542.81
2022-08-17T10:44:39.682Z,98540.28
2022-08-17T10:47:07.946Z,98542.47
2022-08-17T10:49:36.982Z,98547.81
2022-08-17T10:52:45.136Z,98559.44
2022-08-17T10:55:14.895Z,98557.13
2022-08-17T10:57:44.746Z,98567.41
2022-08-17T11:00:17.000Z,98570.50
2022-08-17T11:02:50.822Z,98567.16
2022-08-17T11:05:44.075Z,98559.09
2022-08-17T11:08:38.428Z,98560.28
2022-08-17T11:11:39.696Z,98553.28
2022-08-17T11:14:17.113Z,98552.19
2022-08-17T11:16:53.967Z,98546.03
2022-08-17T11:19:51.554Z,98553.97
2022-08-17T11:22:45.317Z,98551.44
2022-08-17T11:25:17.213Z,98548.81
2022-08-17T11:27:49.105Z,98549.19
2022-08-17T11:30:46.873Z,98557.31
2022-08-17T11:33:54.390Z,98552.09
2022-08-17T11:36:49.626Z,98554.34
2022-08-17T11:39:41.924Z,98549.94
2022-08-17T11:42:25.442Z,98550.19
2022-08-17T11:44:55.110Z,98557.94
2022-08-17T11:48:02.473Z,98559.28
2022-08-17T11:51:01.563Z,98553.22
2022-08-17T11:54:31.106Z,98564.69
2022-08-17T11:56:52.793Z,98552.09
2022-08-17T12:00:10.413Z,98553.13
2022-08-17T12:02:48.282Z,98561.25
2022-08-17T12:05:40.064Z,98552.56
2022-08-17T12:08:17.771Z,98554.72
2022-08-17T12:11:00.538Z,98547.34
2022-08-17T12:13:38.543Z,98559.00
2022-08-17T12:16:10.059Z,98553.91
2022-08-17T12:18:42.127Z,98557.25
2022-08-17T12:21:30.147Z,98557.91
2022-08-17T12:24:05.329Z,98558.81
2022-08-17T12:26:34.673Z,98556.56
2022-08-17T12:29:05.566Z,98564.91
2022-08-17T12:31:36.816Z,98564.50
2022-08-17T12:34:06.347Z,98556.44
2022-08-17T12:36:34.624Z,98557.69
2022-08-17T12:39:14.481Z,98545.28
2022-08-17T12:41:51.292Z,98550.25
2022-08-17T12:44:21.407Z,98544.13
2022-08-17T12:46:54.062Z,98544.56
2022-08-17T12:49:30.202Z,98538.72
2022-08-17T12:52:14.297Z,98539.13
2022-08-17T12:54:48.021Z,98534.78
2022-08-17T12:57:18.651Z,98537.38
2022-08-17T12:59:51.260Z,98530.78
2022-08-17T13:02:33.059Z,98519.72
2022-08-17T13:05:03.116Z,98523.44
2022-08-17T13:07:35.626Z,98519.50
2022-08-17T13:10:05.490Z,98520.44
2022-08-17T13:12:35.800Z,98524.03
2022-08-17T13:15:04.580Z,98522.38
2022-08-17T13:17:35.947Z,98519.25
2022-08-17T13:20:07.260Z,98522.66
2022-08-17T13:22:35.101Z,98511.47
2022-08-17T13:25:07.090Z,98505.88
2022-08-17T13:27:35.160Z,98499.50
2022-08-17T13:30:05.925Z,98495.28
2022-08-17T13:32:44.157Z,98498.56
2022-08-17T13:35:50.328Z,98501.28
2022-08-17T13:38:36.588Z,98499.09
2022-08-17T13:41:07.429Z,98496.38
2022-08-17T13:43:41.033Z,98487.97
2022-08-17T13:46:10.928Z,98484.16
2022-08-17T13:48:39.040Z,98477.06
2022-08-17T13:51:24.789Z,98490.38
2022-08-17T13:54:07.634Z,98491.16
2022-08-17T13:56:47.166Z,98487.41
2022-08-17T13:59:18.228Z,98473.66
2022-08-17T14:02:07.449Z,98467.84
2022-08-17T14:04:35.931Z,98466.81
2022-08-17T14:07:27.769Z,98465.56
2022-08-17T14:10:02.863Z,98469.75
2022-08-17T14:12:33.381Z,98449.88
2022-08-17T14:15:02.027Z,98447.16
2022-08-17T14:17:34.989Z,98449.25
2022-08-17T14:20:07.444Z,98450.06
2022-08-17T14:22:40.634Z,98446.13
2022-08-17T14:25:12.065Z,98451.97
2022-08-17T14:27:51.970Z,98440.22
2022-08-17T14:30:22.791Z,98446.75
2022-08-17T14:32:52.165Z,98448.41
2022-08-17T14:35:22.427Z,98449.47
2022-08-17T14:37:52.334Z,98444.03
2022-08-17T14:40:24.579Z,98442.53
2022-08-17T14:42:54.174Z,98437.31
2022-08-17T14:45:27.019Z,98432.09
2022-08-17T14:48:00.648Z,98433.53
2022-08-17T14:50:28.867Z,98443.16
2022-08-17T14:52:59.139Z,98442.34
2022-08-17T14:55:29.835Z,98426.47
2022-08-17T14:57:57.918Z,98429.16
2022-08-17T15:00:26.949Z,98422.47
2022-08-17T15:02:56.684Z,98426.44
2022-08-17T15:05:26.406Z,98419.75
2022-08-17T15:07:54.587Z,98414.75
2022-08-17T15:10:25.866Z,98422.47
2022-08-17T15:12:54.004Z,98413.47
2022-08-17T15:15:21.956Z,98414.31
2022-08-17T15:17:56.247Z,98412.44
2022-08-17T15:20:26.344Z,98424.13
2022-08-17T15:22:55.095Z,98422.22
2022-08-17T15:25:25.412Z,98419.34
2022-08-17T15:27:54.069Z,98440.59
2022-08-17T15:30:22.524Z,98440.13
2022-08-17T15:32:54.987Z,98431.38
2022-08-17T15:35:28.748Z,98439.53
2022-08-17T15:38:09.816Z,98430.31
2022-08-17T15:40:42.650Z,98430.31
2022-08-17T15:43:27.332Z,98419.41
2022-08-17T15:46:00.159Z,98430.50
2022-08-17T15:48:40.798Z,98429.41
2022-08-17T15:51:13.950Z,98428.72
2022-08-17T15:53:42.491Z,98418.25
2022-08-17T15:56:12.760Z,98420.91
2022-08-17T15:58:46.587Z,98418.41
2022-08-17T16:01:18.733Z,98413.78
2022-08-17T16:04:06.753Z,98408.81
2022-08-17T16:06:35.845Z,98410.94
2022-08-17T16:09:03.814Z,98403.84
2022-08-17T16:11:33.044Z,98395.69
2022-08-17T16:14:00.971Z,98403.94
2022-08-17T16:16:31.155Z,98411.38
2022-08-17T16:18:59.197Z,98412.81
2022-08-17T16:21:29.505Z,98412.38
2022-08-17T16:24:04.501Z,98415.94
2022-08-17T16:26:35.205Z,98419.72
2022-08-17T16:29:06.704Z,98424.31
2022-08-17T16:31:35.957Z,98425.41
2022-08-17T16:34:17.114Z,98425.00
2022-08-17T16:36:55.242Z,98424.97
2022-08-17T16:39:25.526Z,98426.59
2022-08-17T16:41:56.376Z,98425.00
2022-08-17T16:44:25.874Z,98424.19
2022-08-17T16:46:54.028Z,98423.66
2022-08-17T16:49:35.556Z,98423.91
2022-08-17T16:52:05.957Z,98429.53
2022-08-17T16:54:35.496Z,98435.97
2022-08-17T16:57:05.614Z,98439.09
2022-08-17T16:59:41.961Z,98440.34
2022-08-17T17:02:15.668Z,98436.13
2022-08-17T17:04:49.405Z,98437.75
2022-08-17T17:07:44.793Z,98427.97
2022-08-17T17:10:16.770Z,98420.06
2022-08-17T17:13:01.429Z,98420.44
2022-08-17T17:15:41.399Z,98420.56
2022-08-17T17:18:12.954Z,98418.72
2022-08-17T17:20:45.901Z,98420.56
2022-08-17T17:23:24.649Z,98422.91
2022-08-17T17:25:56.805Z,98418.09
2022-08-17T17:28:30.438Z,98419.28
2022-08-17T17:31:02.322Z,98418.25
2022-08-17T17:33:36.137Z,98434.84
2022-08-17T17:36:08.463Z,98423.31
2022-08-17T17:38:42.010Z,98421.22
2022-08-17T17:41:13.015Z,98413.66
2022-08-17T17:43:42.420Z,98414.50
2022-08-17T17:46:28.399Z,98413.56
2022-08-17T17:48:57.104Z,98415.22
2022-08-17T17:51:59.697Z,98407.16
2022-08-17T17:54:28.056Z,98403.28
2022-08-17T17:57:02.775Z,98408.97
2022-08-17T17:59:44.110Z,98406.25
2022-08-17T18:02:40.796Z,98415.81
2022-08-17T18:05:17.174Z,98422.44
2022-08-17T18:07:50.067Z,98424.56
2022-08-17T18:10:30.289Z,98419.19
2022-08-17T18:13:08.656Z,98419.19
2022-08-17T18:15:42.016Z,98421.47
2022-08-17T18:18:31.031Z,98417.28
2022-08-17T18:21:05.802Z,98414.69
2022-08-17T18:23:33.762Z,98417.50
2022-08-17T18:26:02.798Z,98420.50
2022-08-17T18:28:32.127Z,98420.41
2022-08-17T18:31:14.068Z,98419.66
2022-08-17T18:33:43.545Z,98415.16
2022-08-17T18:36:12.051Z,98418.78
2022-08-17T18:38:41.906Z,98425.88
2022-08-17T18:41:23.284Z,98431.47
2022-08-17T18:44:01.253Z,98437.16
2022-08-17T18:46:36.766Z,98444.78
2022-08-17T18:49:08.450Z,98451.47
2022-08-17T18:51:40.467Z,98444.66
2022-08-17T18:54:19.546Z,98446.16
2022-08-17T18:56:52.827Z,98458.75
2022-08-17T18:59:27.799Z,98460.31
2022-08-17T19:02:24.228Z,98455.25
2022-08-17T19:05:02.932Z,98458.63
2022-08-17T19:07:34.061Z,98465.94
2022-08-17T19:10:08.492Z,98480.03
2022-08-17T19:12:40.495Z,98473.50
2022-08-17T19:15:10.328Z,98486.63
2022-08-17T19:17:44.888Z,98480.81
2022-08-17T19:20:17.594Z,98471.44
2022-08-17T19:23:01.428Z,98482.22
2022-08-17T19:25:32.871Z,98490.34
2022-08-17T19:28:05.164Z,98491.69
2022-08-17T19:30:50.359Z,98490.56
2022-08-17T19:33:19.836Z,98496.44
2022-08-17T19:35:53.163Z,98488.72
2022-08-17T19:38:28.342Z,98483.16
2022-08-17T19:41:04.568Z,98484.53
2022-08-17T19:44:07.800Z,98489.44
2022-08-17T19:46:48.789Z,98490.16
2022-08-17T19:49:32.964Z,98485.25
2022-08-17T19:52:20.340Z,98492.19
2022-08-17T19:54:55.515Z,98488.00
2022-08-17T19:57:43.561Z,98489.00
2022-08-17T20:00:13.371Z,98491.75
2022-08-17T20:02:47.431Z,98491.78
2022-08-17T20:05:22.841Z,98492.63
2022-08-17T20:07:55.240Z,98492.63
2022-08-17T20:10:30.471Z,98494.16
2022-08-17T20:13:04.397Z,98495.97
2022-08-17T20:15:35.692Z,98503.09
2022-08-17T20:18:07.116Z,98500.91
2022-08-17T20:20:46.791Z,98502.91
2022-08-17T20:23:38.730Z,98510.81
2022-08-17T20:26:18.495Z,98503.09
2022-08-17T20:29:37.638Z,98505.97
2022-08-17T20:32:26.230Z,98515.22
2022-08-17T20:35:20.254Z,98506.09
2022-08-17T20:38:02.563Z,98500.25
2022-08-17T20:40:33.704Z,98503.94
2022-08-17T20:43:40.098Z,98502.28
2022-08-17T20:46:33.010Z,98487.47
2022-08-17T20:49:15.047Z,98483.72
2022-08-17T20:52:00.684Z,98499.50
2022-08-17T20:54:49.747Z,98496.81
2022-08-17T20:57:48.435Z,98508.25
2022-08-17T21:00:40.839Z,98516.78
2022-08-17T21:03:50.657Z,98520.47
2022-08-17T21:06:23.233Z,98521.53
2022-08-17T21:09:07.143Z,98532.09
2022-08-17T21:12:06.152Z,98519.47
2022-08-17T21:14:56.339Z,98526.50
2022-08-17T21:17:41.782Z,98533.25
2022-08-17T21:20:23.538Z,98533.75
2022-08-17T21:22:59.380Z,98538.75
2022-08-17T21:25:42.966Z,98548.44
2022-08-17T21:28:17.293Z,98543.94
2022-08-17T21:30:52.052Z,98536.53
2022-08-17T21:33:25.286Z,98535.63
2022-08-17T21:35:58.538Z,98540.41
2022-08-17T21:38:35.362Z,98536.19
2022-08-17T21:41:03.089Z,98524.78
2022-08-17T21:43:35.433Z,98529.53
2022-08-17T21:46:05.117Z,98530.00
2022-08-17T21:48:41.561Z,98532.34
2022-08-17T21:51:12.127Z,98534.69
2022-08-17T21:53:44.464Z,98532.53
2022-08-17T21:56:14.243Z,98527.94
2022-08-17T21:58:48.609Z,98540.22
2022-08-17T22:01:27.008Z,98541.91
2022-08-17T22:03:58.454Z,98548.22
2022-08-17T22:06:29.894Z,98560.25
2022-08-17T22:09:05.343Z,98560.31
2022-08-17T22:11:34.355Z,98552.22
2022-08-17T22:14:05.844Z,98546.84
2022-08-17T22:16:34.053Z,98550.22
2022-08-17T22:19:01.887Z,98546.13
2022-08-17T22:21:29.772Z,98551.03
2022-08-17T22:24:06.159Z,98557.41
2022-08-17T22:27:03.534Z,98559.25
2022-08-17T22:29:54.344Z,98557.56
2022-08-17T22:32:38.832Z,98566.06
2022-08-17T22:35:28.719Z,98572.31
2022-08-17T22:37:56.709Z,98575.91
2022-08-17T22:40:30.649Z,98574.88
2022-08-17T22:42:59.635Z,98574.91
2022-08-17T22:45:29.933Z,98564.31
2022-08-17T22:47:58.685Z,98569.66
2022-08-17T22:50:29.039Z,98575.88
2022-08-17T22:53:17.211Z,98588.47
2022-08-17T22:56:10.270Z,98588.03
2022-08-17T22:59:01.938Z,98591.78
2022-08-17T23:01:33.323Z,98592.78
2022-08-17T23:04:04.015Z,98604.34
2022-08-17T23:06:33.914Z,98597.16
2022-08-17T23:09:03.816Z,98592.09
2022-08-17T23:11:36.774Z,98598.16
2022-08-17T23:14:19.229Z,98594.09
2022-08-17T23:16:50.263Z,98590.81
2022-08-17T23:19:20.635Z,98594.56
2022-08-17T23:21:49.131Z,98596.69
2022-08-17T23:24:20.869Z,98591.50
2022-08-17T23:26:48.634Z,98595.88
2022-08-17T23:29:16.542Z,98601.53
2022-08-17T23:31:44.240Z,98604.38
2022-08-17T23:34:14.890Z,98596.25
2022-08-17T23:36:45.310Z,98600.44
2022-08-17T23:39:13.311Z,98600.84
2022-08-17T23:41:41.945Z,98608.66
2022-08-17T23:44:09.658Z,98607.75
2022-08-17T23:46:37.296Z,98611.06
2022-08-17T23:49:06.581Z,98614.59
2022-08-17T23:51:38.762Z,98613.28
2022-08-17T23:54:12.572Z,98602.00
2022-08-17T23:56:45.463Z,98606.28
2022-08-17T23:59:13.493Z,98605.69
